Station: Murray Bridge

  Atmospheric Gas Attenuation - ITU Rec 676-11   --------------- db/100km ---------------
Date Time Temp RH % AH g/m3 Dew Point Wind Direction Speed kph Gust kph Barometer mB Rainfall Since 9am 24GHz 47GHz 76GHz 122GHz 134GHz 241GHz
27 09:00 13.1 73 8.33 8.5 4 1013.1 0.6 19.0 25.7 39.1 102.5 95.7 328.9
26 09:00 11.5 78 8.06 7.8 7 1013.1 11 18.5 25.7 38.7 101.6 94.1 323.0
25 09:00 8.1 94 7.82 7.2 4 1013.1 8 18.2 26.3 39.4 103.4 95.0 325.7
24 09:00 13.2 71 8.15 8.2 4 1013.1 2 18.7 25.3 38.3 100.4 93.2 320.2
23 09:00 14.4 64 7.91 7.8 22 1013.1 2 18.1 24.6 36.8 96.4 88.7 304.6
22 09:00 1013.1
21 09:00 15.2 53 6.88 5.8 22 1013.1 9 15.9 22.8 32.5 85.1 75.0 256.8
19 09:00 19.6 69 11.65 13.9 22 1013.1 0 25.8 29.1 49.0 128.9 130.6 451.9
18 09:00 16.8 68 9.72 11 4 1013.1 1 21.8 26.8 42.7 112.3 109.2 376.5
17 09:00 14.4 75 9.27 10 15 1013.1 0.1 21.0 26.8 42.2 110.9 106.5 367.0
16 09:00 15 65 8.33 8.5 7 1013.1 0 19.0 25.1 38.1 100.0 93.4 321.1
15 09:00 11.8 77 8.11 7.9 0 1013.1 0.4 18.6 25.7 38.8 101.8 94.4 324.1
14 09:00 14 85 10.25 11.6 11 1013.1 0.1 23.1 28.6 46.5 122.3 120.5 415.9
13 09:00 14 65 7.84 7.5 11 1013.1 8 18.0 24.6 36.7 96.2 88.3 303.0
12 09:00 18.7 67 10.73 12.4 11 1013.1 0 23.9 27.9 45.7 120.4 119.7 413.7
11 09:00 18.8 37 5.96 3.8 22 1013.1 0 13.8 20.7 28.0 72.9 61.3 208.9
10 09:00 10.6 64 6.25 4.1 11 1013.1 0 14.7 23.0 32.0 83.6 71.5 243.9
09 09:00 13.4 69 8.02 7.9 4 1013.1 0 18.4 25.1 37.7 98.8 91.3 313.5
08 09:00 16.1 70 9.59 10.6 0 1013.1 0 21.6 26.8 42.6 111.9 108.4 373.9
07 09:00 19.1 27 4.43 -0.1 28 1013.1 0 10.6 18.6 22.9 59.3 44.5 150.1
06 09:00 12.8 70 7.84 7.5 7 1013.1 0.1 18.0 25.0 37.2 97.6 89.6 307.7
05 09:00 14.8 67 8.49 8.7 22 1013.1 0.8 19.3 25.4 38.9 102.0 95.7 329.2
04 09:00 13.8 69 8.22 8.2 7 1013.1 0 18.8 25.3 38.3 100.4 93.4 321.0
03 09:00 15.1 60 7.74 7.4 33 1013.1 0 17.7 24.2 35.8 93.8 85.8 294.4
02 09:00 17.8 62 9.41 10.5 4 1013.1 0 21.1 26.0 41.0 107.6 103.8 357.7
01 09:00 1013.1
31 09:00 12.1 67 7.19 6.2 4 1013.1 0.9 16.7 24.1 35.0 91.7 82.0 280.8
30 09:00 14.8 72 9.12 9.8 11 1013.1 0 20.7 26.4 41.4 108.7 104.0 358.1
29 09:00 11.8 75 7.89 7.5 7 1013.1 0.1 18.2 25.3 37.9 99.4 91.5 313.9
28 09:00 10.3 84 8.05 7.8 0 1013.1 0 18.6 26.0 39.3 103.1 95.4 327.6
27 09:00 17 43 6.22 4.5 4 1013.1 0 14.4 21.4 29.5 77.0 65.6 224.1
26 09:00 8.1 79 6.58 4.7 7 1013.1 0.1 15.5 24.2 34.3 89.8 78.2 266.9
25 09:00 6.4 79 5.89 3 0 1013.1 0.1 14.1 23.6 32.3 84.3 70.7 240.5
24 09:00 6.7 85 6.46 4.4 4 1013.1 0.2 15.3 24.4 34.5 90.1 78.0 266.0
23 09:00 10.8 75 7.41 6.6 7 1013.1 3 17.2 24.8 36.5 95.5 86.3 295.6
22 09:00 8.5 82 7 5.6 22 1013.1 3 16.4 24.8 35.9 93.9 83.3 285.0
21 09:00 11.7 65 6.8 5.4 11 1013.1 2 15.8 23.6 33.7 88.1 77.4 264.8
18 09:00 13.7 67 7.93 7.8 4 1013.1 0.8 18.2 24.8 37.2 97.5 89.8 308.2
17 09:00 9 96 8.47 8.4 7 1013.1 0.1 19.5 27.1 41.7 109.6 102.9 353.6
16 09:00 12.7 79 8.79 9.1 7 1013.1 0.3 20.1 26.5 41.1 108.0 102.4 352.2
15 09:00 12 87 9.27 10 4 1013.1 0.4 21.1 27.5 43.5 114.3 109.9 378.5
14 09:00 12.7 82 9.13 9.8 0 1013.1 0.2 20.8 27.1 42.5 111.7 107.0 368.3
13 09:00 13.1 88 10.04 11.2 4 1013.1 0.3 22.7 28.5 46.1 121.4 119.0 410.4
12 09:00 14.6 75 9.39 10.2 22 1013.1 5 21.2 26.9 42.6 111.9 107.8 371.7
11 09:00 11.6 78 8.11 7.9 11 1013.1 0 18.6 25.7 38.9 102.0 94.6 325.0
10 09:00 4.7 97 6.47 4.2 0 1013.1 0.2 15.4 25.0 35.4 92.6 80.2 273.4
09 09:00 8.8 91 7.92 7.5 4 1013.1 3 18.4 26.2 39.5 103.6 95.5 327.6
08 09:00 9 97 8.55 8.6 15 1013.1 9 19.7 27.2 42.1 110.5 104.0 357.5
07 09:00 7.3 78 6.17 3.8 11 1013.1 0 14.7 23.8 33.0 86.4 73.6 250.6
06 09:00 3.4 90 5.5 1.9 0 1013.1 0 13.4 23.7 31.9 83.4 68.2 231.3
05 09:00 4.2 77 4.97 0.5 0 1013.1 0.2 12.2 22.7 29.5 76.9 60.5 204.5
04 09:00 8.8 73 6.36 4.2 0 1013.1 1 15.0 23.7 33.2 86.7 74.6 254.5
03 09:00 10.3 92 8.81 9.1 0 1013.1 0 20.2 27.3 42.5 111.6 105.9 364.2
02 09:00 9.3 73 6.56 4.8 0 1013.1 0 15.4 23.9 33.8 88.3 76.7 262.0
01 09:00 9.6 69 6.32 4.2 0 1013.1 0 14.9 23.4 32.7 85.4 73.3 250.1
31 09:00 6.8 86 6.58 4.7 4 1013.1 0 15.6 24.6 34.9 91.3 79.5 271.3
30 09:00 11.7 82 8.58 8.7 0 1013.1 0.1 19.6 26.5 40.8 107.0 100.8 346.7
29 09:00 4.2 85 5.48 1.9 0 1013.1 0.1 13.3 23.5 31.5 82.3 67.3 228.0
28 09:00 9.1 83 7.37 6.3 4 1013.1 0.2 17.2 25.2 37.1 97.2 87.6 300.2
27 09:00 12.1 97 10.4 11.7 22 1013.1 0.8 23.5 29.5 48.3 127.1 125.7 433.8
26 09:00 3.8 97 6.09 3.3 0 1013.1 0 14.6 24.6 34.2 89.4 75.9 258.2
24 09:00 4.4 87 5.69 2.4 4 1013.1 0 13.7 23.8 32.3 84.4 69.9 237.3
22 09:00 9.8 81 7.52 6.8 0 1013.1 0 17.5 25.3 37.4 97.9 88.9 304.5
21 09:00 9.7 83 7.65 6.9 0 1013.1 0 17.7 25.5 37.9 99.5 90.7 311.0
20 09:00 9.1 80 7.1 5.8 4 1013.1 0 16.6 24.8 36.0 94.2 84.0 287.5
19 09:00 13.6 72 8.47 8.6 7 1013.1 0 19.3 25.7 39.4 103.3 96.9 333.3
18 09:00 9.1 68 6.04 3.6 4 1013.1 0 14.3 23.1 31.8 83.1 70.2 239.1
17 09:00 6.6 99 7.48 6.4 0 1013.1 0.3 17.5 26.1 38.7 101.6 92.1 315.3
16 09:00 6.3 80 5.93 3.2 0 1013.1 0 14.2 23.7 32.5 84.9 71.3 242.6
14 09:00 4.7 99 6.6 4.5 0 1013.1 0.2 15.7 25.2 35.9 94.0 82.0 279.7
13 09:00 10.2 97 9.23 9.8 0 1013.1 0.4 21.1 28.0 44.3 116.5 111.9 385.4
12 09:00 10.6 95 9.27 9.8 7 1013.1 3 21.2 28.0 44.3 116.4 111.9 385.4
11 09:00 7.8 93 7.59 6.7 0 1013.1 0.2 17.7 26.0 38.6 101.3 92.2 315.8
10 09:00 1013.1
09 09:00 3.8 97 6.09 3.3 11 1013.1 0 14.6 24.6 34.2 89.4 75.9 258.2
08 09:00 8.1 83 6.91 5.4 0 1013.1 0 16.2 24.8 35.7 93.4 82.6 282.3
07 09:00 10.6 70 6.83 5.4 0 1013.1 0 15.9 23.9 34.3 89.6 78.9 269.8
06 09:00 9.1 81 7.19 6.1 0 1013.1 0 16.8 24.9 36.4 95.2 85.2 291.7
05 09:00 11.8 87 9.16 9.8 0 1013.1 0.4 20.9 27.4 43.1 113.4 108.6 374.1
04 09:00 10.1 91 8.61 8.7 0 1013.1 2 19.8 27.0 41.7 109.6 103.4 355.4
02 09:00 9.6 88 8.06 7.7 0 1013.1 7 18.6 26.2 39.7 104.1 96.4 331.0
01 09:00 8.6 66 5.67 2.7 0 1013.1 0 13.5 22.7 30.6 79.8 66.0 224.1
30 09:00 9.2 60 5.36 2 7 1013.1 0 12.9 22.0 29.2 76.0 61.6 208.9
29 09:00 4.7 86 5.73 2.5 0 1013.1 0.1 13.8 23.8 32.3 84.5 70.1 238.2
28 09:00 6.1 82 5.99 3.2 0 1013.1 0 14.3 23.8 32.8 85.7 72.3 246.0
27 09:00 7.3 91 7.19 6 0 1013.1 0.1 16.9 25.4 37.2 97.4 87.2 298.5
26 09:00 9 96 8.47 8.4 0 1013.1 0.4 19.5 27.1 41.7 109.6 102.9 353.6
25 09:00 12.7 66 7.35 6.6 4 1013.1 0.1 17.0 24.2 35.4 92.6 83.4 285.9
24 09:00 8.8 95 8.27 8 0 1013.1 0.2 19.1 26.8 41.0 107.6 100.4 344.6
23 09:00 12 95 10.13 11.2 11 1013.1 7 23.0 29.0 47.2 124.2 122.0 420.8
22 09:00 11.1 87 8.76 9.1 15 1013.1 3 20.1 27.0 41.8 109.9 104.1 358.0
21 09:00 11.8 89 9.37 10 7 1013.1 7 21.3 27.8 44.0 115.7 111.6 384.3
20 09:00 9.8 87 8.07 7.7 0 1013.1 0 18.6 26.2 39.6 104.0 96.3 330.6
19 09:00 8.9 72 6.31 4.1 4 1013.1 0 14.9 23.6 32.9 86.1 73.9 251.9
18 09:00 8.6 88 7.56 6.7 0 1013.1 0.2 17.6 25.7 38.1 99.9 90.8 311.2
17 09:00 10.5 96 9.31 9.9 0 1013.1 0.4 21.3 28.1 44.5 117.0 112.6 387.8
16 09:00 14.3 85 10.44 11.9 0 1013.1 0.1 23.5 28.8 47.1 124.0 122.7 423.6
15 09:00 14.2 79 9.65 10.6 11 1013.1 1 21.8 27.5 43.9 115.3 111.9 385.9
14 09:00 12.8 75 8.4 8.6 22 1013.1 2 19.2 25.9 39.5 103.6 97.0 333.5
13 09:00 10.2 68 6.47 4.6 4 1013.1 0.1 15.2 23.5 33.0 86.3 74.7 255.0

Last Refresh: 27-Sep-2020 14:06:58

Most of the information presented on this site is sourced from the Bureau of Meteorology.  Copyright in all material sourced from the Bureau of Meteorology resides with the Commonwealth of Australia.